Time;durP1;ratioP1;P1;durP2;ratioP2;P2;SDS_P1;SDS_P2;PMS_P1;PMS_P2;Temp;Humidity;BMP_temperature;BMP_pressure;BME280_temperature;BME280_humidity;BME280_pressure;Samples;Min_cycle;Max_cycle;Signal;HPM_P1;HPM_P2
2023/03/24 00:00:10;;;;;;;11.20;7.72;;;;;;;11.97;83.10;101711.31;5108103;28;20024;-90
2023/03/24 00:02:40;;;;;;;12.18;8.27;;;;;;;11.45;82.97;101626.88;5086095;28;20031;-88
2023/03/24 00:05:19;;;;;;;12.77;8.20;;;;;;;11.88;83.09;101694.13;5110846;28;20077;-89
2023/03/24 00:07:44;;;;;;;9.93;7.63;;;;;;;11.91;83.24;101710.94;5112163;28;20030;-90
2023/03/24 00:10:16;;;;;;;11.10;8.10;;;;;;;11.83;83.37;101701.66;5098951;28;20031;-91
2023/03/24 00:12:43;;;;;;;10.73;7.82;;;;;;;11.90;83.25;101703.91;5092837;28;20112;-91
2023/03/24 00:15:13;;;;;;;11.32;7.97;;;;;;;11.90;83.46;101706.53;5112107;28;20479;-88
2023/03/24 00:17:40;;;;;;;11.85;7.93;;;;;;;11.81;83.46;101692.81;5112379;28;20488;-89
2023/03/24 00:20:13;;;;;;;12.52;8.40;;;;;;;11.78;83.25;101684.75;5112741;28;20080;-90
2023/03/24 00:22:48;;;;;;;10.40;7.35;;;;;;;11.62;83.14;101661.97;5103082;28;20027;-90
2023/03/24 00:25:19;;;;;;;10.02;7.28;;;;;;;11.87;83.17;101693.19;5100011;28;20024;-90
2023/03/24 00:27:47;;;;;;;10.73;7.82;;;;;;;11.68;83.40;101658.81;5097688;28;20493;-90
2023/03/24 00:30:15;;;;;;;9.82;7.40;;;;;;;11.69;83.40;101669.38;5111733;28;20039;-90
2023/03/24 00:32:41;;;;;;;11.63;8.00;;;;;;;11.51;83.25;101642.94;5082023;28;20032;-90
2023/03/24 00:35:09;;;;;;;;;;;;;;;11.87;83.06;101690.56;5099553;28;20036;-90
2023/03/24 00:37:36;;;;;;;11.02;8.23;;;;;;;11.63;83.23;101658.53;5091424;28;19969;-90
2023/03/24 00:40:06;;;;;;;11.90;7.90;;;;;;;11.82;83.37;101684.16;5102904;28;20035;-90
2023/03/24 00:42:35;;;;;;;10.18;7.35;;;;;;;11.68;83.39;101664.94;5091179;28;20024;-91
2023/03/24 00:45:03;;;;;;;10.57;7.65;;;;;;;11.76;83.86;101681.13;5074534;28;20590;-90
2023/03/24 00:47:35;;;;;;;10.13;7.47;;;;;;;11.63;83.23;101647.16;5096531;28;20030;-90
2023/03/24 00:50:05;;;;;;;11.13;7.43;;;;;;;11.49;83.16;101623.63;5086470;28;20055;-90
2023/03/24 00:52:32;;;;;;;11.68;7.60;;;;;;;11.81;83.18;101684.97;5095242;28;20413;-90
2023/03/24 00:55:02;;;;;;;10.65;7.68;;;;;;;11.79;83.03;101689.19;5105417;28;20088;-90
2023/03/24 00:57:33;;;;;;;11.07;7.55;;;;;;;11.64;83.42;101664.66;5111397;28;20103;-90
2023/03/24 01:00:08;;;;;;;11.60;7.63;;;;;;;11.74;83.64;101685.38;5097063;28;20032;-90
2023/03/24 01:02:34;;;;;;;9.38;7.25;;;;;;;11.66;83.11;101677.00;5110559;28;20544;-90
2023/03/24 01:05:01;;;;;;;9.40;7.03;;;;;;;11.64;83.29;101677.72;5104427;28;20027;-90
2023/03/24 01:07:29;;;;;;;10.18;7.30;;;;;;;11.60;82.91;101653.09;5083056;28;20101;-90
2023/03/24 01:09:58;;;;;;;10.38;7.78;;;;;;;11.76;83.00;101686.38;5095058;28;20026;-90
2023/03/24 01:12:32;;;;;;;10.20;7.43;;;;;;;11.69;83.17;101682.47;5094837;28;20043;-90
2023/03/24 01:15:00;;;;;;;9.50;7.05;;;;;;;11.75;83.07;101687.19;5104678;28;20029;-90
2023/03/24 01:17:26;;;;;;;11.02;7.47;;;;;;;11.72;83.50;101682.66;5104946;28;20028;-89
2023/03/24 01:19:52;;;;;;;9.38;7.05;;;;;;;11.65;82.99;101664.75;5111032;28;20030;-90
2023/03/24 01:22:19;;;;;;;;;;;;;;;11.75;82.93;101685.47;5111167;28;20072;-90
2023/03/24 01:24:46;;;;;;;9.65;6.80;;;;;;;11.67;83.17;101671.00;5110971;28;20373;-90
2023/03/24 01:27:13;;;;;;;9.85;7.22;;;;;;;11.59;83.01;101659.13;5109998;28;20054;-90
2023/03/24 01:29:39;;;;;;;10.75;7.55;;;;;;;11.69;83.34;101678.94;5111449;28;20048;-89
2023/03/24 01:32:05;;;;;;;9.77;6.72;;;;;;;11.64;82.95;101654.19;5076535;28;20024;-90
2023/03/24 01:34:33;;;;;;;10.35;6.60;;;;;;;11.60;83.00;101653.09;5091081;28;20035;-90
2023/03/24 01:36:59;;;;;;;9.85;6.82;;;;;;;11.65;82.80;101664.75;5088679;28;20043;-89
2023/03/24 01:39:26;;;;;;;10.77;7.35;;;;;;;11.51;82.63;101642.03;5079018;28;20024;-90
2023/03/24 01:41:52;;;;;;;9.20;6.90;;;;;;;11.50;82.78;101648.09;5103410;28;20066;-90
2023/03/24 01:44:35;;;;;;;9.98;6.95;;;;;;;11.63;83.35;101668.09;5093305;28;20051;-90
2023/03/24 01:47:06;;;;;;;10.55;7.28;;;;;;;11.61;83.23;101673.22;5076442;28;20463;-89
2023/03/24 01:49:35;;;;;;;9.07;6.90;;;;;;;11.64;83.02;101667.28;5084331;28;20020;-90
2023/03/24 01:52:03;;;;;;;8.88;6.53;;;;;;;11.45;83.14;101634.72;5082639;28;20024;-89
2023/03/24 01:54:34;;;;;;;10.40;6.70;;;;;;;11.33;83.18;101621.75;5085850;28;20023;-89
2023/03/24 01:57:05;;;;;;;9.30;6.93;;;;;;;11.59;83.29;101657.41;5079590;28;20035;-90
2023/03/24 01:59:34;;;;;;;10.32;6.90;;;;;;;11.55;83.11;101649.28;5069405;28;20032;-90
2023/03/24 02:02:02;;;;;;;9.45;6.70;;;;;;;11.37;83.37;101625.47;5060294;28;20458;-89
2023/03/24 02:04:37;;;;;;;12.10;7.47;;;;;;;11.43;83.44;101632.78;5093021;28;20024;-89
2023/03/24 02:07:19;;;;;;;10.73;7.13;;;;;;;11.61;82.82;101661.03;5101986;28;20524;-89
2023/03/24 02:09:47;;;;;;;9.73;6.70;;;;;;;11.59;83.16;101661.75;5076257;28;20035;-90
2023/03/24 02:12:15;;;;;;;10.10;6.45;;;;;;;11.31;83.23;101620.75;5087368;28;20023;-89
2023/03/24 02:14:41;;;;;;;10.68;7.03;;;;;;;11.39;83.10;101631.72;5092632;28;20443;-90
2023/03/24 02:17:25;;;;;;;9.18;6.70;;;;;;;11.57;82.97;101663.34;5060024;28;20039;-89
2023/03/24 02:20:11;;;;;;;9.85;6.78;;;;;;;11.55;83.37;101662.34;5102008;28;20028;-89
2023/03/24 02:23:05;;;;;;;11.10;7.10;;;;;;;11.58;83.14;101673.94;5115201;28;20392;-89
2023/03/24 02:25:42;;;;;;;9.80;6.78;;;;;;;11.59;82.69;101673.09;5114687;28;20031;-90
2023/03/24 02:28:26;;;;;;;10.48;7.00;;;;;;;11.59;82.89;101677.44;5070386;28;20035;-89
2023/03/24 02:31:10;;;;;;;9.82;6.78;;;;;;;11.55;82.88;101675.44;5098961;28;20547;-89
2023/03/24 02:34:03;;;;;;;9.93;6.90;;;;;;;11.47;82.97;101653.09;5082337;28;20032;-90
2023/03/24 02:36:51;;;;;;;10.20;6.88;;;;;;;11.58;82.65;101681.78;5088337;28;20016;-90
2023/03/24 02:39:17;;;;;;;10.23;6.63;;;;;;;11.60;82.45;101674.03;5089383;28;20051;-90
2023/03/24 02:41:54;;;;;;;9.23;6.20;;;;;;;11.56;82.67;101675.53;5115144;28;20106;-90
2023/03/24 02:44:56;;;;;;;9.68;6.80;;;;;;;11.58;82.43;101671.31;5108790;28;20016;-90
2023/03/24 02:47:56;;;;;;;9.95;6.55;;;;;;;11.58;82.45;101681.78;5077296;28;20028;-90
2023/03/24 02:50:40;;;;;;;10.93;6.38;;;;;;;11.57;82.37;101679.06;5052019;28;20055;-90
2023/03/24 02:53:08;;;;;;;9.65;6.55;;;;;;;11.56;82.38;101685.09;5093283;28;20071;-90
2023/03/24 02:56:03;;;;;;;10.20;6.68;;;;;;;11.34;82.43;101649.69;5114830;28;20069;-90
2023/03/24 02:58:53;;;;;;;9.35;6.28;;;;;;;11.54;82.61;101689.34;5106563;28;20031;-92
2023/03/24 03:01:34;;;;;;;9.73;6.88;;;;;;;11.49;82.85;101690.72;5077397;28;20084;-90
2023/03/24 03:04:24;;;;;;;10.77;6.65;;;;;;;11.53;82.59;101697.97;5075770;28;20024;-90
2023/03/24 03:06:55;;;;;;;9.25;6.55;;;;;;;11.50;82.59;101693.44;5078178;28;20023;-90
2023/03/24 03:09:22;;;;;;;8.35;6.13;;;;;;;11.32;82.22;101667.00;5066149;28;20032;-89
2023/03/24 03:11:50;;;;;;;9.55;6.32;;;;;;;11.49;82.82;101706.41;5082429;28;20058;-88
2023/03/24 03:14:36;;;;;;;9.02;6.28;;;;;;;11.32;82.41;101679.16;5078434;28;20401;-87
2023/03/24 03:17:08;;;;;;;6.88;5.47;;;;;;;11.46;82.89;101716.69;5094226;28;20481;-89
2023/03/24 03:19:39;;;;;;;9.27;6.05;;;;;;;11.19;82.61;101667.91;5095412;28;20034;-89
2023/03/24 03:22:10;;;;;;;8.93;6.20;;;;;;;11.31;82.48;101685.22;5079329;28;20027;-89
2023/03/24 03:24:40;;;;;;;11.40;6.53;;;;;;;11.45;82.67;101707.03;5078741;28;20074;-90
2023/03/24 03:27:13;;;;;;;9.25;6.38;;;;;;;11.17;82.71;101659.03;5095812;28;20051;-87
2023/03/24 03:29:44;;;;;;;8.60;5.97;;;;;;;11.45;82.20;101694.88;5079878;28;20037;-90
2023/03/24 03:32:14;;;;;;;7.85;5.82;;;;;;;11.30;82.26;101671.25;5078185;28;20032;-90
2023/03/24 03:34:45;;;;;;;9.55;6.55;;;;;;;11.41;82.71;101699.00;5103037;28;20561;-89
2023/03/24 03:37:37;;;;;;;9.18;6.15;;;;;;;11.40;82.83;101694.56;5110945;28;20420;-90
2023/03/24 03:40:14;;;;;;;9.27;5.90;;;;;;;11.40;82.37;101698.88;5102365;28;20066;-91
2023/03/24 03:42:40;;;;;;;9.07;6.45;;;;;;;11.23;82.44;101662.88;5088725;28;20417;-90
2023/03/24 03:45:09;;;;;;;7.95;5.97;;;;;;;11.33;81.95;101686.22;5103723;28;20020;-90
2023/03/24 03:47:36;;;;;;;8.60;6.03;;;;;;;11.16;82.30;101653.75;5106194;28;20066;-89
2023/03/24 03:50:03;;;;;;;8.25;6.05;;;;;;;11.37;82.11;101685.63;5107022;28;20027;-90
2023/03/24 03:52:29;;;;;;;8.13;5.75;;;;;;;11.27;82.38;101684.09;5099310;28;20027;-90
2023/03/24 03:54:55;;;;;;;8.80;6.20;;;;;;;11.29;82.51;101687.72;5081841;28;20028;-89
2023/03/24 03:57:21;;;;;;;7.53;5.65;;;;;;;11.09;82.17;101644.59;5075173;28;20509;-90
2023/03/24 03:59:47;;;;;;;8.45;5.78;;;;;;;11.13;82.04;101649.22;5105533;28;20035;-90
2023/03/24 04:02:15;;;;;;;9.07;6.05;;;;;;;11.38;81.90;101684.81;5099049;28;20073;-90
2023/03/24 04:05:13;;;;;;;9.07;6.45;;;;;;;11.21;82.16;101647.09;5112521;28;20023;-90
2023/03/24 04:07:42;;;;;;;8.05;5.38;;;;;;;11.40;81.98;101670.13;5113537;28;20043;-91
2023/03/24 04:10:48;;;;;;;7.47;5.53;;;;;;;11.37;82.22;101678.66;5100792;28;20113;-91
2023/03/24 04:20:31;;;;;;;7.97;5.60;;;;;;;11.12;81.79;101647.41;5070863;28;20131;-91
2023/03/24 04:26:53;;;;;;;7.72;5.88;;;;;;;11.27;81.93;101676.25;5011081;28;20100;-89
2023/03/24 04:29:35;;;;;;;8.68;5.75;;;;;;;11.31;81.95;101693.97;4989244;28;20134;-90
2023/03/24 04:38:52;;;;;;;8.75;5.97;;;;;;;10.98;81.79;101629.88;4965196;28;20154;-90
2023/03/24 04:41:18;;;;;;;8.93;5.65;;;;;;;11.12;81.64;101646.50;4943878;28;20027;-89
2023/03/24 04:43:46;;;;;;;8.90;5.60;;;;;;;11.05;81.70;101644.25;5003808;28;20068;-89
2023/03/24 04:46:16;;;;;;;7.72;5.70;;;;;;;11.24;82.07;101685.59;5070671;28;20111;-91
2023/03/24 04:48:46;;;;;;;7.90;5.60;;;;;;;11.14;81.74;101671.94;5056337;28;20884;-92
2023/03/24 04:51:17;;;;;;;7.90;5.85;;;;;;;11.12;81.97;101662.19;5052652;28;20043;-92
2023/03/24 04:53:44;;;;;;;8.45;5.80;;;;;;;11.28;81.62;101699.00;5063192;28;20024;-91
2023/03/24 04:56:31;;;;;;;8.55;6.28;;;;;;;11.26;81.61;101697.06;5074395;28;20032;-91
2023/03/24 04:58:58;;;;;;;7.88;5.50;;;;;;;11.12;81.93;101678.75;5077181;28;20047;-90
2023/03/24 05:01:29;;;;;;;7.25;5.25;;;;;;;11.16;81.60;101686.00;5070629;28;20636;-91
2023/03/24 05:03:57;;;;;;;8.82;6.10;;;;;;;11.13;81.82;101680.59;5051128;28;20445;-89
2023/03/24 05:06:24;;;;;;;9.32;6.10;;;;;;;11.14;82.04;101684.09;5057471;28;20082;-90
2023/03/24 05:08:51;;;;;;;;;;;;;;;11.25;81.45;101704.00;5053855;28;20425;-90
2023/03/24 05:11:18;;;;;;;8.40;5.72;;;;;;;11.26;81.35;101707.53;5060347;28;19970;-89
2023/03/24 05:13:44;;;;;;;7.93;5.88;;;;;;;11.18;81.83;101694.84;5055501;28;20036;-89
2023/03/24 05:16:10;;;;;;;9.13;6.15;;;;;;;11.21;81.76;101715.06;5072774;28;20031;-89
2023/03/24 05:18:36;;;;;;;8.30;5.75;;;;;;;10.96;81.66;101675.94;5073096;28;20028;-89
2023/03/24 05:21:01;;;;;;;7.97;6.05;;;;;;;10.85;82.06;101666.47;5075483;28;20075;-89
2023/03/24 05:23:27;;;;;;;9.65;5.53;;;;;;;10.95;81.73;101672.41;5087892;28;20394;-89
2023/03/24 05:25:52;;;;;;;8.57;5.63;;;;;;;11.09;82.00;101694.25;5072567;28;20036;-88
2023/03/24 05:28:18;;;;;;;7.28;5.57;;;;;;;11.13;81.53;101696.28;5078794;28;20029;-89
2023/03/24 05:30:43;;;;;;;7.88;5.55;;;;;;;11.06;81.93;101680.06;5060995;28;20048;-89
2023/03/24 05:33:10;;;;;;;8.50;5.97;;;;;;;10.93;82.09;101678.34;5059833;28;20036;-90
2023/03/24 05:35:35;;;;;;;8.18;6.00;;;;;;;11.08;81.76;101696.75;5071935;28;20024;-89
2023/03/24 05:38:01;;;;;;;8.25;5.75;;;;;;;11.05;82.09;101701.75;5086578;28;20030;-89
2023/03/24 05:40:28;;;;;;;9.23;5.93;;;;;;;11.15;81.90;101714.66;5082956;28;20487;-89
2023/03/24 05:42:53;;;;;;;8.75;5.82;;;;;;;11.14;81.85;101723.31;5078774;28;20130;-89
2023/03/24 05:45:19;;;;;;;7.82;5.50;;;;;;;11.16;81.92;101725.22;5080317;28;20456;-89
2023/03/24 05:47:45;;;;;;;8.60;5.90;;;;;;;11.17;81.97;101728.72;5062415;28;20562;-90
2023/03/24 05:50:11;;;;;;;9.48;6.10;;;;;;;11.02;81.61;101705.09;5063621;28;20046;-89
2023/03/24 05:52:37;;;;;;;8.25;5.78;;;;;;;11.01;81.69;101711.13;5051762;28;20024;-89
2023/03/24 05:55:03;;;;;;;7.90;5.68;;;;;;;10.94;81.64;101706.28;5063444;28;20493;-90
2023/03/24 05:57:29;;;;;;;9.15;6.07;;;;;;;11.06;81.83;101719.28;5056216;28;20031;-90
2023/03/24 05:59:58;;;;;;;7.97;5.57;;;;;;;10.90;82.08;101706.88;5065513;28;20028;-91
2023/03/24 06:02:26;;;;;;;8.30;5.93;;;;;;;11.15;81.53;101740.78;5063559;28;20572;-88
2023/03/24 06:04:52;;;;;;;7.70;5.47;;;;;;;10.68;81.20;101655.78;5058019;28;20027;-88
2023/03/24 06:07:17;;;;;;;7.32;5.70;;;;;;;10.89;81.53;101687.69;5083198;28;20021;-89
2023/03/24 06:09:51;;;;;;;8.13;5.47;;;;;;;11.11;81.80;101728.31;5065789;28;20141;-88
2023/03/24 06:12:17;;;;;;;9.13;5.22;;;;;;;11.16;81.78;101742.63;5067613;28;20033;-87
2023/03/24 06:14:44;;;;;;;8.25;5.93;;;;;;;10.95;81.74;101715.94;5066363;28;20028;-86
2023/03/24 06:17:13;;;;;;;11.23;7.20;;;;;;;11.13;81.38;101747.63;5070116;28;20092;-85
2023/03/24 06:19:49;;;;;;;9.05;5.85;;;;;;;11.18;78.66;101735.78;5064772;28;20039;-85
2023/03/24 06:22:18;;;;;;;8.30;5.65;;;;;;;11.38;76.96;101744.94;5093438;28;20095;-85
2023/03/24 06:24:44;;;;;;;9.65;6.55;;;;;;;11.32;78.13;101724.53;5081548;28;20099;-84
2023/03/24 06:27:10;;;;;;;11.40;7.70;;;;;;;11.35;77.07;101729.06;5059538;28;20470;-84
2023/03/24 06:29:36;;;;;;;14.45;8.20;;;;;;;11.43;76.27;101746.19;5066356;28;20561;-85
2023/03/24 06:32:04;;;;;;;12.93;8.57;;;;;;;11.33;76.75;101733.28;5076261;28;20036;-85
2023/03/24 06:34:31;;;;;;;12.60;8.00;;;;;;;11.36;76.05;101728.25;5072914;28;20724;-85
2023/03/24 06:36:56;;;;;;;12.02;7.47;;;;;;;11.40;76.33;101732.88;5102111;28;20032;-84
2023/03/24 06:39:22;;;;;;;12.98;7.82;;;;;;;11.39;76.30;101738.94;5096006;28;20420;-85
2023/03/24 06:41:49;;;;;;;14.00;7.88;;;;;;;11.40;76.22;101733.78;5107709;28;20074;-85
2023/03/24 06:44:15;;;;;;;12.70;7.72;;;;;;;11.28;76.95;101712.06;5099185;28;20024;-86
2023/03/24 06:46:41;;;;;;;10.15;7.75;;;;;;;11.33;77.32;101728.06;5059453;28;20089;-86
2023/03/24 06:49:06;;;;;;;14.00;8.05;;;;;;;11.43;77.85;101748.78;5082769;28;20600;-88
2023/03/24 06:51:32;;;;;;;12.93;8.32;;;;;;;11.48;77.34;101756.94;5086146;28;20076;-88
2023/03/24 06:53:58;;;;;;;11.88;7.50;;;;;;;11.44;77.42;101752.31;5090993;28;20031;-88
2023/03/24 06:56:23;;;;;;;13.80;8.00;;;;;;;11.45;77.00;101743.63;5093035;28;20094;-88
2023/03/24 06:58:49;;;;;;;12.68;7.65;;;;;;;11.28;76.64;101706.84;5104756;28;20039;-87
2023/03/24 07:01:16;;;;;;;11.05;7.03;;;;;;;11.38;76.58;101726.66;5112162;28;20066;-87
2023/03/24 07:03:42;;;;;;;10.25;7.25;;;;;;;11.49;76.28;101730.84;5110706;27;20513;-88
2023/03/24 07:06:08;;;;;;;13.05;7.20;;;;;;;11.30;75.93;101702.63;5082938;28;20067;-88
2023/03/24 07:08:35;;;;;;;11.60;7.05;;;;;;;11.25;75.99;101687.44;5068845;28;20051;-88
2023/03/24 07:11:01;;;;;;;11.85;6.93;;;;;;;11.19;75.57;101674.84;5075647;28;20045;-89
2023/03/24 07:13:28;;;;;;;10.40;6.70;;;;;;;11.62;75.22;101748.28;5073816;28;20472;-89
2023/03/24 07:15:53;;;;;;;10.23;6.72;;;;;;;11.63;75.34;101752.72;5072925;28;20024;-89
2023/03/24 07:18:20;;;;;;;12.52;6.88;;;;;;;11.16;75.02;101679.88;5084457;28;20027;-90
2023/03/24 07:20:46;;;;;;;9.55;6.63;;;;;;;11.42;75.38;101718.19;5084895;28;20096;-89
2023/03/24 07:23:12;;;;;;;11.38;6.80;;;;;;;11.60;75.28;101749.91;5072434;28;20118;-90
2023/03/24 07:25:42;;;;;;;10.00;6.75;;;;;;;11.59;74.92;101740.22;5069831;28;20189;-88
2023/03/24 07:28:08;;;;;;;8.68;5.90;;;;;;;11.64;74.75;101745.75;5103495;28;20442;-89
2023/03/24 07:30:35;;;;;;;9.50;6.93;;;;;;;11.56;75.07;101734.81;5082984;28;20044;-89
2023/03/24 07:33:05;;;;;;;10.15;6.80;;;;;;;11.56;75.83;101740.94;5090738;28;20020;-88
2023/03/24 07:35:31;;;;;;;10.50;7.03;;;;;;;11.46;76.37;101728.06;5091263;27;20031;-89
2023/03/24 07:38:00;;;;;;;10.45;6.68;;;;;;;11.42;77.04;101715.59;5097349;27;20024;-88
2023/03/24 07:40:26;;;;;;;11.57;6.80;;;;;;;11.19;76.76;101669.63;5074871;28;20024;-87
2023/03/24 07:42:53;;;;;;;9.85;6.78;;;;;;;11.48;76.66;101720.31;5105036;28;20050;-88
2023/03/24 07:45:20;;;;;;;11.35;6.78;;;;;;;11.34;76.57;101693.25;5104471;28;20024;-91
2023/03/24 07:47:46;;;;;;;8.40;6.15;;;;;;;11.48;75.85;101720.31;5089231;28;20085;-89
2023/03/24 07:50:12;;;;;;;9.05;6.28;;;;;;;11.56;75.56;101730.47;5079062;28;20031;-90
2023/03/24 07:52:41;;;;;;;9.35;6.20;;;;;;;11.52;75.59;101707.53;5083607;28;20066;-89
2023/03/24 07:55:10;;;;;;;10.00;6.57;;;;;;;11.39;75.29;101691.84;5091964;28;20137;-92
2023/03/24 07:57:40;;;;;;;10.15;6.72;;;;;;;11.64;75.27;101736.22;5077409;28;20031;-91
2023/03/24 08:00:29;;;;;;;9.95;6.60;;;;;;;11.63;75.14;101737.00;5063818;28;20043;-89
2023/03/24 08:02:53;;;;;;;9.82;6.43;;;;;;;11.53;75.21;101716.28;5081103;28;20047;-90
2023/03/24 08:05:20;;;;;;;9.98;6.07;;;;;;;11.68;74.51;101737.31;5096692;28;20555;-90
2023/03/24 08:07:57;;;;;;;8.93;6.00;;;;;;;11.52;74.58;101712.75;5091630;28;20521;-88
2023/03/24 08:10:25;;;;;;;10.07;6.82;;;;;;;11.69;74.39;101741.75;5083303;28;20028;-89
2023/03/24 08:12:51;;;;;;;10.35;6.85;;;;;;;11.67;74.57;101738.13;5077252;28;20036;-89
2023/03/24 08:15:17;;;;;;;10.48;6.90;;;;;;;11.48;74.38;101699.41;5064654;28;20196;-89
2023/03/24 08:17:44;;;;;;;9.23;6.40;;;;;;;11.65;74.22;101730.16;5100494;28;20036;-88
2023/03/24 08:20:13;;;;;;;9.90;6.47;;;;;;;11.68;74.46;101729.44;5105911;28;20020;-89
2023/03/24 08:22:42;;;;;;;9.43;6.68;;;;;;;11.60;75.32;101729.88;5104274;28;20386;-89
2023/03/24 08:25:09;;;;;;;9.20;6.55;;;;;;;11.43;75.99;101698.16;5108184;27;20024;-88
2023/03/24 08:27:36;;;;;;;11.00;6.93;;;;;;;11.65;76.03;101722.31;5091429;28;20031;-89
2023/03/24 08:30:04;;;;;;;11.93;7.00;;;;;;;11.62;76.00;101716.91;5081577;28;20056;-89
2023/03/24 08:32:30;;;;;;;8.98;6.43;;;;;;;11.42;76.32;101678.97;5085834;28;20084;-88
2023/03/24 08:34:57;;;;;;;9.25;6.30;;;;;;;11.44;75.91;101686.91;5100633;28;20028;-88
2023/03/24 08:37:23;;;;;;;9.40;6.18;;;;;;;11.41;75.62;101678.06;5095978;28;20500;-87
2023/03/24 08:39:50;;;;;;;10.02;6.63;;;;;;;11.65;75.14;101708.34;5106525;28;20081;-88
2023/03/24 08:42:18;;;;;;;10.27;6.75;;;;;;;11.62;75.10;101706.44;5086230;28;20023;-89
2023/03/24 08:44:48;;;;;;;9.23;6.18;;;;;;;11.55;74.82;101698.97;5104860;28;20366;-89
2023/03/24 08:47:14;;;;;;;9.25;6.43;;;;;;;11.60;74.47;101701.09;5108453;28;20023;-89
2023/03/24 08:49:40;;;;;;;8.68;6.30;;;;;;;11.72;74.42;101731.47;5095446;28;20120;-89
2023/03/24 08:52:07;;;;;;;8.65;6.38;;;;;;;11.55;74.36;101701.59;5110075;28;20020;-91
2023/03/24 08:54:33;;;;;;;10.57;6.82;;;;;;;11.66;74.39;101726.72;5090183;28;20127;-87
2023/03/24 08:56:59;;;;;;;9.38;6.50;;;;;;;11.70;74.32;101718.28;5104492;28;20528;-89
2023/03/24 08:59:25;;;;;;;8.85;6.28;;;;;;;11.65;74.27;101718.81;5092027;28;20019;-89
2023/03/24 09:01:52;;;;;;;8.52;5.80;;;;;;;11.52;73.89;101698.78;5110233;28;20474;-89
2023/03/24 09:04:19;;;;;;;9.68;6.40;;;;;;;11.64;74.21;101717.91;5114079;27;20027;-90
2023/03/24 09:06:45;;;;;;;9.18;6.07;;;;;;;11.49;73.77;101680.25;5072370;28;20566;-88
2023/03/24 09:09:12;;;;;;;8.70;6.05;;;;;;;11.70;73.90;101718.28;5113159;27;20027;-89
2023/03/24 09:11:38;;;;;;;8.73;6.05;;;;;;;11.64;74.79;101717.91;5105213;27;20453;-88
2023/03/24 09:14:05;;;;;;;8.95;6.18;;;;;;;11.63;75.18;101726.53;5100311;28;20031;-89
2023/03/24 09:16:31;;;;;;;8.65;6.05;;;;;;;11.53;75.47;101700.59;5076739;28;20497;-90
2023/03/24 09:18:57;;;;;;;9.60;6.50;;;;;;;11.65;75.97;101717.09;5089789;28;20084;-89
2023/03/24 09:21:23;;;;;;;9.15;6.43;;;;;;;11.29;75.51;101655.44;5097608;28;20036;-91
2023/03/24 09:23:49;;;;;;;7.88;6.20;;;;;;;11.25;75.39;101646.50;5100521;28;20389;-88
2023/03/24 09:26:15;;;;;;;7.68;5.68;;;;;;;11.56;74.94;101696.47;5103408;28;20103;-88
2023/03/24 09:28:41;;;;;;;9.20;6.03;;;;;;;11.49;74.73;101683.78;5094367;28;20024;-86
2023/03/24 09:31:07;;;;;;;9.23;6.30;;;;;;;11.65;74.57;101704.00;5106340;28;20050;-91
2023/03/24 09:33:34;;;;;;;8.30;6.03;;;;;;;11.65;74.40;101704.00;5098423;28;20028;-90
2023/03/24 09:36:02;;;;;;;9.05;6.07;;;;;;;11.74;74.31;101707.19;5081316;28;20576;-92
2023/03/24 09:38:29;;;;;;;9.85;6.20;;;;;;;11.65;73.87;101692.63;5093658;28;20028;-92
2023/03/24 09:40:56;;;;;;;;;;;;;;;11.76;74.03;101716.06;5110653;28;20023;-89
2023/03/24 09:43:40;;;;;;;;;;;;;;;11.76;73.77;101709.94;5092001;28;19915;-90
2023/03/24 09:46:13;;;;;;;8.23;5.78;;;;;;;11.69;74.07;101702.50;5092573;28;19923;-89
2023/03/24 09:48:58;;;;;;;8.40;5.63;;;;;;;11.72;73.77;101702.69;5109211;28;20089;-88
2023/03/24 09:51:41;;;;;;;7.85;5.68;;;;;;;11.73;73.78;101701.91;5110291;28;20059;-91
2023/03/24 09:54:16;;;;;;;7.80;5.68;;;;;;;11.76;73.29;101708.19;5080934;28;20477;-89
2023/03/24 09:56:44;;;;;;;8.20;5.97;;;;;;;11.59;73.61;101669.59;5105707;28;20038;-89
2023/03/24 09:59:18;;;;;;;8.27;5.53;;;;;;;11.76;73.45;101699.47;5110748;28;20020;-89
2023/03/24 10:01:46;;;;;;;7.82;5.53;;;;;;;11.69;74.16;101689.41;5097255;28;20028;-90
2023/03/24 10:04:19;;;;;;;7.60;5.65;;;;;;;11.70;74.74;101694.72;5110933;28;20027;-90
2023/03/24 10:06:47;;;;;;;7.75;5.60;;;;;;;11.56;75.00;101678.16;5109869;28;20030;-89
2023/03/24 10:09:34;;;;;;;7.32;5.40;;;;;;;11.56;75.29;101672.94;5093582;28;20051;-90
2023/03/24 10:12:20;;;;;;;8.10;5.50;;;;;;;11.35;75.26;101635.81;5100286;28;20020;-89
2023/03/24 10:15:05;;;;;;;8.48;5.43;;;;;;;11.75;74.82;101695.06;5094606;28;20508;-91
2023/03/24 10:17:39;;;;;;;6.65;5.00;;;;;;;11.75;74.76;101692.44;5114459;28;20165;-88
2023/03/24 10:20:11;;;;;;;8.20;5.60;;;;;;;11.76;74.43;101692.50;5115898;28;20023;-90
2023/03/24 10:23:00;;;;;;;6.35;5.03;;;;;;;11.77;74.25;101690.81;5115799;28;20035;-90
2023/03/24 10:25:59;;;;;;;6.75;5.03;;;;;;;11.80;73.89;101689.28;5114629;28;20039;-89
2023/03/24 10:28:53;;;;;;;7.05;5.03;;;;;;;11.80;73.53;101686.66;5095677;28;20040;-90
2023/03/24 10:31:27;;;;;;;7.07;4.93;;;;;;;11.61;73.70;101654.91;5079838;28;20512;-90
2023/03/24 10:33:58;;;;;;;7.15;5.20;;;;;;;11.67;73.76;101670.09;5114433;28;20468;-89
2023/03/24 10:36:27;;;;;;;7.50;5.15;;;;;;;11.55;73.36;101644.03;5086461;28;20070;-90
2023/03/24 10:38:57;;;;;;;6.57;4.82;;;;;;;11.75;73.47;101674.13;5093194;28;20489;-91
2023/03/24 10:41:26;;;;;;;7.13;5.03;;;;;;;11.80;73.46;101680.53;5113970;28;20031;-90
2023/03/24 10:43:55;;;;;;;6.95;4.63;;;;;;;11.67;73.22;101654.41;5115507;28;20219;-91
2023/03/24 10:46:29;;;;;;;6.03;4.60;;;;;;;11.76;73.34;101668.94;5097200;28;20501;-90
2023/03/24 10:49:18;;;;;;;7.72;4.85;;;;;;;11.81;73.29;101679.75;5100908;28;20051;-90
2023/03/24 10:52:02;;;;;;;7.15;4.82;;;;;;;11.79;73.56;101674.41;5096206;28;20090;-90
2023/03/24 10:54:30;;;;;;;6.20;4.53;;;;;;;11.64;74.39;101644.66;5104103;28;20024;-90
2023/03/24 10:56:59;;;;;;;7.72;5.10;;;;;;;11.76;74.57;101666.34;5079360;28;20047;-90
2023/03/24 10:59:46;;;;;;;7.00;4.88;;;;;;;11.78;74.74;101666.44;5093812;28;20032;-91
2023/03/24 11:02:15;;;;;;;6.18;4.43;;;;;;;11.78;74.32;101669.06;5103353;28;20051;-91
2023/03/24 11:04:46;;;;;;;6.97;4.72;;;;;;;11.70;74.62;101650.25;5093508;28;20036;-92
2023/03/24 11:07:19;;;;;;;6.13;4.60;;;;;;;11.30;74.25;101577.09;5103553;28;20031;-91
2023/03/24 11:09:47;;;;;;;6.78;4.70;;;;;;;11.79;74.18;101666.53;5101453;28;20031;-90
2023/03/24 11:12:25;;;;;;;7.15;4.50;;;;;;;11.77;73.62;101647.22;5083358;28;20024;-92
2023/03/24 11:15:21;;;;;;;6.10;4.57;;;;;;;11.86;74.08;101648.63;5100209;28;20489;-90
2023/03/24 11:17:55;;;;;;;6.90;4.50;;;;;;;11.84;73.47;101638.03;5084189;28;20046;-91
2023/03/24 11:20:36;;;;;;;6.32;4.40;;;;;;;11.76;73.40;101624.47;5091278;28;20118;-90
2023/03/24 11:23:16;;;;;;;5.45;4.05;;;;;;;11.84;73.14;101630.19;5104204;28;20082;-91
2023/03/24 11:26:07;;;;;;;5.55;4.35;;;;;;;11.75;73.03;101612.22;5106313;28;20119;-91
2023/03/24 11:29:23;;;;;;;6.60;4.75;;;;;;;11.86;72.76;101625.06;5104138;28;20032;-90
2023/03/24 11:31:59;;;;;;;5.38;4.10;;;;;;;11.69;73.24;101590.88;5089089;28;20047;-90
2023/03/24 11:34:37;;;;;;;6.20;4.30;;;;;;;11.82;73.21;101613.50;5107181;27;20020;-89
2023/03/24 11:37:27;;;;;;;5.20;4.00;;;;;;;11.86;72.68;101606.75;5087686;28;20063;-91
2023/03/24 11:40:12;;;;;;;5.05;4.05;;;;;;;11.88;73.00;101607.75;5082122;28;20047;-91
2023/03/24 11:43:07;;;;;;;5.93;4.18;;;;;;;11.79;73.15;101597.63;5106865;28;20027;-87
2023/03/24 11:46:12;;;;;;;6.47;4.40;;;;;;;11.68;73.88;101572.47;5102056;28;20028;-90
2023/03/24 11:48:49;;;;;;;6.45;4.35;;;;;;;11.90;74.49;101600.94;5110646;28;20101;-90
2023/03/24 11:51:25;;;;;;;6.72;4.13;;;;;;;11.83;74.36;101586.50;5097030;28;20046;-89
2023/03/24 11:53:52;;;;;;;5.53;4.20;;;;;;;11.78;74.27;101573.13;5110300;28;20031;-89
2023/03/24 11:56:24;;;;;;;6.30;4.57;;;;;;;11.95;73.84;101596.88;5109196;27;20043;-89
2023/03/24 11:59:30;;;;;;;5.28;4.10;;;;;;;11.95;73.65;101599.47;5100444;28;20040;-90
2023/03/24 12:02:17;;;;;;;5.72;3.88;;;;;;;11.99;73.36;101599.75;5069721;27;20028;-90